Huvudsida
METAR-TAF:

METAR-TAF

Flygplatser :

Sandefjords flygplats. Torp

Sandefjords, Norge

latitud: 59-12N, longitud: 010-16E, höjd: 8 m

Aktuellt väderrapport

Denna rapport gjordes för 39 minuter sedan, klockan 11:20 UTC
Vind 13 kt från nord
Temperatur 4°C
Fuktighet 56%
Tryck 1022 hPa
Sikt 10 km eller mer
Inga moln under 1 500 m eller inga cumulonimbus

METAR: ENTO 111120Z 36013KT CAVOK 04/M04 Q1022

Tid: 12:59 (11:59 UTC)

Väderprognos

Prognos gäller från 11 kl. 12 UTC till 12 kl. 12 UTC
Vind 12 kt från nord
Sikt 10 km eller mer
Inga moln under 1 500 m eller inga cumulonimbus

TAF: ENTO 1112/1212 36012KT CAVOK

Aktuella väderrapporter och prognoser från 4000 flygplatser (METAR- och TAF-rapporter).

De tillgängliga stationerna syns som gula och röda prickar på kartan.

För musen över prickarna för att se namnen på stationerna.

Klicka sedan för att få väderrapporter och prognoser.

För att ändra kartan: Klicka på de gröna knapparna med ett svart kors på för att zooma in; den gröna knappen med ett streck på för att zooma ut; eller på de gröna pilarna för angränsande kartor.


METAR-TAF: